aviador You're here:

LFMI Decoded Metar

ISTRES in FRANCE
Report Time2017-09-23 21:30:00
UTC Time2017-09-23 21:42:19
Flight Rules ifr IFR
Wind350° at 03 kt
W.Decomp.*RWY 33: 2.8 kt HW 1.0 kt RCW
W.Rank350° ranks 3
Current wind is below 350° avg. (13.7)
Visibility9999 m
Phenomena:Mist
Clouds:N/A
Expected CloudBase > 400 ft AGL from Temp-Dew spread
Ceiling800 ft
Temp16°C (ISA +1)
Dew Point15°C (94% RH)
QNH1020 hPa
Density Alt207 ft
Elevation79 ft
Report Wrong Elevation
Raw Report
LFMI 232130Z AUTO 35003KT CAVOK 16/15 Q1020 TEMPO 4000 BR
BKN008=

Extra information for LFMI:More info

Metar Taf Metar & Taf Last 4 Metars F.Rules Stats Wind Profile Meteogram Temp Stats Airport Information Weather charts Add Link Nearby VenuesMetar ALERT Operation Metar Decoded Social comments